Time;durP1;ratioP1;P1;durP2;ratioP2;P2;SDS_P1;SDS_P2;PMS_P1;PMS_P2;Temp;Humidity;BMP_temperature;BMP_pressure;BME280_temperature;BME280_humidity;BME280_pressure;Samples;Min_cycle;Max_cycle;Signal;HPM_P1;HPM_P2
2022/05/05 15:36:34;;;;;;;4.62;1.10;;;;;;;16.78;30.00;101652.28;1889389;76;22585;-82
2022/05/05 15:39:00;;;;;;;2.37;1.10;;;;;;;16.75;29.99;101662.33;1860291;77;21482;-82
2022/05/05 15:41:26;;;;;;;4.20;1.12;;;;;;;16.69;29.70;101659.34;1860524;77;21053;-85
2022/05/05 15:43:52;;;;;;;2.98;1.30;;;;;;;16.64;30.09;101667.51;1860304;77;21003;-81
2022/05/05 15:46:19;;;;;;;1.80;1.20;;;;;;;16.54;29.90;101664.81;1860489;77;21023;-83
2022/05/05 15:48:46;;;;;;;4.25;1.17;;;;;;;16.45;29.86;101663.73;1860552;77;21523;-81
2022/05/05 15:51:13;;;;;;;3.25;1.40;;;;;;;16.41;30.04;101670.79;1827505;77;20995;-82
2022/05/05 15:53:41;;;;;;;3.45;1.00;;;;;;;16.33;30.24;101675.70;1860633;77;21148;-81
2022/05/05 15:56:08;;;;;;;3.25;1.10;;;;;;;16.23;30.23;101670.23;1860287;77;21534;-82
2022/05/05 15:58:34;;;;;;;24.63;2.37;;;;;;;16.12;30.45;101678.14;1860404;77;21062;-81
2022/05/05 16:01:00;;;;;;;2.77;1.30;;;;;;;16.03;30.47;101673.78;1860447;77;20980;-82
2022/05/05 16:03:26;;;;;;;6.58;1.90;;;;;;;15.94;30.80;101684.88;1860500;77;20994;-81
2022/05/05 16:05:55;;;;;;;7.78;2.10;;;;;;;15.90;31.21;101686.52;1827426;77;21546;-82
2022/05/05 16:08:22;;;;;;;5.83;2.20;;;;;;;15.83;31.71;101691.41;1860025;77;21015;-80
2022/05/05 16:10:49;;;;;;;22.95;7.50;;;;;;;15.72;31.68;101690.55;1860373;77;20952;-80
2022/05/05 16:13:16;;;;;;;81.32;25.05;;;;;;;15.66;31.71;101691.05;1860414;77;21014;-81
2022/05/05 16:15:42;;;;;;;77.62;23.92;;;;;;;15.60;31.51;101694.02;1860398;77;21553;-81
2022/05/05 16:18:09;;;;;;;37.35;12.60;;;;;;;15.51;31.63;101686.92;1860404;77;21080;-80
2022/05/05 16:20:36;;;;;;;27.20;8.48;;;;;;;15.44;31.56;101694.48;1860265;77;22175;-80
2022/05/05 16:23:02;;;;;;;14.80;4.35;;;;;;;15.34;31.84;101699.88;1860467;77;21046;-81
2022/05/05 16:30:57;;;;;;;4.75;1.52;;;;;;;14.91;32.18;101694.50;1860271;77;21487;-81
2022/05/05 16:33:23;;;;;;;2.40;1.30;;;;;;;14.91;32.56;101719.44;1860389;77;20968;-83
2022/05/05 16:35:49;;;;;;;2.62;1.37;;;;;;;14.81;32.48;101718.03;1859865;77;20968;-81
2022/05/05 16:38:15;;;;;;;3.52;1.10;;;;;;;14.69;32.85;101722.28;1860342;77;21015;-80
2022/05/05 16:40:42;;;;;;;9.68;1.32;;;;;;;14.56;33.35;101728.97;1860558;77;20996;-79
2022/05/05 16:43:09;;;;;;;7.42;1.20;;;;;;;14.47;33.70;101731.30;1820656;78;21279;-80
2022/05/05 16:45:37;;;;;;;5.40;1.45;;;;;;;14.39;33.90;101742.61;1820152;78;21494;-81
2022/05/05 16:48:06;;;;;;;4.95;1.55;;;;;;;14.30;34.10;101738.73;1792989;78;21026;-82
2022/05/05 16:50:32;;;;;;;9.20;1.50;;;;;;;14.19;34.46;101743.77;1819154;78;20995;-80
2022/05/05 16:52:58;;;;;;;8.08;1.90;;;;;;;14.07;34.79;101742.02;1820011;78;21054;-81
2022/05/05 16:55:25;;;;;;;7.62;1.47;;;;;;;13.97;34.84;101741.92;1792927;78;21821;-80
2022/05/05 16:57:52;;;;;;;6.55;1.90;;;;;;;13.86;34.95;101745.04;1819723;78;21064;-81
2022/05/05 17:00:20;;;;;;;2.90;1.25;;;;;;;13.78;35.02;101748.19;1820027;78;21487;-80
2022/05/05 17:02:47;;;;;;;4.47;1.20;;;;;;;13.68;35.10;101754.85;1820040;78;20956;-80
2022/05/05 17:05:13;;;;;;;8.83;1.50;;;;;;;13.57;35.68;101758.50;1820043;78;21037;-82
2022/05/05 17:07:43;;;;;;;6.58;2.80;;;;;;;13.49;35.82;101759.73;1838259;77;21118;-82
2022/05/05 17:10:12;;;;;;;8.48;2.95;;;;;;;13.40;36.19;101761.24;1859341;77;20963;-82
2022/05/05 17:15:11;;;;;;;14.20;4.12;;;;;;;13.21;36.66;101767.97;1710217;83;21067;-82
2022/05/05 17:17:37;;;;;;;11.08;4.60;;;;;;;13.11;36.81;101780.28;1710410;83;21072;-82
2022/05/05 17:20:04;;;;;;;10.05;3.35;;;;;;;13.04;36.78;101780.18;1710422;83;21111;-82
2022/05/05 17:22:31;;;;;;;18.25;3.00;;;;;;;12.93;37.31;101780.00;1710585;83;21728;-79
2022/05/05 17:24:58;;;;;;;9.58;2.25;;;;;;;12.84;37.37;101789.59;1710561;83;21066;-83
2022/05/05 17:27:25;;;;;;;14.13;3.90;;;;;;;12.75;37.29;101791.61;1710542;83;21035;-82
2022/05/05 17:29:51;;;;;;;19.87;4.28;;;;;;;12.66;37.67;101796.06;1710443;83;21123;-82
2022/05/05 17:32:17;;;;;;;15.75;4.85;;;;;;;12.56;37.85;101803.16;1710390;83;21125;-83
2022/05/05 17:34:43;;;;;;;19.57;6.05;;;;;;;12.45;37.85;101809.75;1710295;83;21161;-82
2022/05/05 17:37:09;;;;;;;16.17;5.50;;;;;;;12.37;37.98;101816.08;1710545;83;21511;-82
2022/05/05 17:39:36;;;;;;;18.10;5.47;;;;;;;12.25;38.27;101812.07;1710437;83;21011;-81
2022/05/05 17:42:02;;;;;;;13.70;4.47;;;;;;;12.17;38.53;101817.31;1673978;83;21040;-82
2022/05/05 17:52:41;;;;;;;20.50;3.75;;;;;;;11.87;38.37;101832.38;1710228;83;21016;-83
2022/05/05 17:55:07;;;;;;;9.20;3.20;;;;;;;11.78;38.77;101839.17;1710340;83;20901;-84
2022/05/05 17:57:36;;;;;;;5.30;2.27;;;;;;;11.71;38.96;101846.06;1710343;83;21067;-84
2022/05/05 18:00:07;;;;;;;12.20;2.80;;;;;;;11.64;39.04;101843.99;1710088;83;21580;-83
2022/05/05 18:02:33;;;;;;;12.90;2.55;;;;;;;11.57;39.18;101844.13;1706783;83;21078;-84
2022/05/05 18:04:59;;;;;;;8.83;2.77;;;;;;;11.50;39.35;101852.03;1710326;83;20996;-84
2022/05/05 18:07:28;;;;;;;6.12;2.85;;;;;;;11.43;39.31;101859.44;1710409;83;20981;-84
2022/05/05 18:09:53;;;;;;;6.92;3.10;;;;;;;11.36;39.76;101858.21;1709926;83;20984;-83
2022/05/05 18:12:19;;;;;;;7.30;2.92;;;;;;;11.29;39.82;101858.30;1800585;77;20907;-83
2022/05/05 18:14:45;;;;;;;8.90;2.70;;;;;;;11.24;39.64;101870.87;1859814;77;20979;-83
2022/05/05 18:17:11;;;;;;;6.58;2.70;;;;;;;11.20;39.85;101866.98;1859934;77;21011;-83
2022/05/05 18:19:38;;;;;;;7.17;2.37;;;;;;;11.18;39.81;101869.92;1826942;77;21167;-83
2022/05/05 18:22:05;;;;;;;10.80;2.60;;;;;;;11.13;39.83;101872.48;1859314;77;21306;-83
2022/05/05 18:24:31;;;;;;;8.73;2.92;;;;;;;11.09;39.82;101877.53;1859854;77;21506;-83
2022/05/05 18:26:57;;;;;;;8.43;2.30;;;;;;;11.06;39.88;101882.55;1859673;77;20883;-83
2022/05/05 18:29:23;;;;;;;4.95;2.60;;;;;;;11.02;40.00;101880.02;1859777;77;21025;-82
2022/05/05 18:31:49;;;;;;;22.70;2.70;;;;;;;10.99;40.24;101885.88;1859901;77;21034;-81
2022/05/05 18:34:15;;;;;;;14.90;3.20;;;;;;;10.94;40.01;101886.56;1859735;77;21503;-83
2022/05/05 18:36:44;;;;;;;5.70;2.00;;;;;;;10.91;40.31;101887.87;1849807;77;21680;-83
2022/05/05 18:39:09;;;;;;;6.45;2.50;;;;;;;10.88;40.20;101887.48;1845770;77;21546;-82
2022/05/05 18:41:35;;;;;;;4.67;2.30;;;;;;;10.85;40.68;101890.64;1846287;77;20872;-82
2022/05/05 18:44:01;;;;;;;5.03;2.60;;;;;;;10.83;40.67;101899.51;1846378;77;21511;-84
2022/05/05 18:46:27;;;;;;;6.60;2.20;;;;;;;10.78;40.72;101902.06;1846340;77;21096;-83
2022/05/05 18:48:53;;;;;;;5.33;1.98;;;;;;;10.74;41.04;101901.70;1846304;77;20868;-83
2022/05/05 18:51:19;;;;;;;6.72;2.08;;;;;;;10.69;40.87;101905.59;1846165;77;21388;-83
2022/05/05 18:53:45;;;;;;;8.63;2.37;;;;;;;10.64;40.97;101906.27;1846736;77;20837;-82
2022/05/05 18:56:11;;;;;;;7.00;2.20;;;;;;;10.60;41.25;101909.66;1846351;77;20980;-83
2022/05/05 18:58:37;;;;;;;4.85;2.22;;;;;;;10.56;41.64;101910.66;1846390;77;21991;-83
2022/05/05 19:01:03;;;;;;;5.95;2.40;;;;;;;10.54;41.77;101911.92;1846388;77;20932;-83
2022/05/05 19:03:30;;;;;;;9.88;2.15;;;;;;;10.47;41.81;101914.71;1846231;77;20968;-83
2022/05/05 19:05:56;;;;;;;11.12;2.80;;;;;;;10.43;41.97;101919.70;1846214;77;21008;-83
2022/05/05 19:08:22;;;;;;;7.40;2.17;;;;;;;10.38;42.52;101913.34;1846263;77;21046;-83
2022/05/05 19:10:48;;;;;;;4.65;1.87;;;;;;;10.32;42.86;101916.41;1846211;77;21748;-84
2022/05/05 19:13:14;;;;;;;7.50;1.90;;;;;;;10.26;43.02;101918.63;1846125;77;20960;-83
2022/05/05 19:15:43;;;;;;;5.40;2.10;;;;;;;10.22;43.14;101920.14;1818222;77;21074;-83
2022/05/05 19:18:09;;;;;;;6.87;2.40;;;;;;;10.16;43.02;101919.69;1846223;77;20968;-83
2022/05/05 19:20:36;;;;;;;8.85;2.45;;;;;;;10.11;43.06;101919.53;1846065;77;20888;-84
2022/05/05 19:23:03;;;;;;;10.28;2.27;;;;;;;10.06;43.39;101919.38;1818121;77;21151;-83
2022/05/05 19:25:29;;;;;;;4.40;1.98;;;;;;;10.00;43.34;101917.08;1845779;77;20964;-83
2022/05/05 19:27:55;;;;;;;7.83;2.08;;;;;;;9.96;43.80;101916.67;1846073;77;20967;-82
2022/05/05 19:30:21;;;;;;;10.03;1.80;;;;;;;9.91;44.19;101918.39;1846134;77;20976;-82
2022/05/05 19:32:48;;;;;;;6.40;2.02;;;;;;;9.85;44.23;101920.09;1846154;77;20932;-84
2022/05/05 19:35:16;;;;;;;7.05;2.00;;;;;;;9.82;44.25;101921.06;1845793;77;21184;-83
2022/05/05 19:37:43;;;;;;;9.23;1.87;;;;;;;9.78;44.23;101918.00;1846151;77;21503;-83
2022/05/05 19:40:09;;;;;;;3.62;1.50;;;;;;;9.74;44.36;101920.32;1846234;77;20972;-83
2022/05/05 19:42:35;;;;;;;3.70;1.52;;;;;;;9.73;44.31;101918.66;1846239;77;20963;-83
2022/05/05 19:45:03;;;;;;;7.53;1.42;;;;;;;9.71;44.71;101922.11;1846077;77;21031;-84
2022/05/05 19:47:29;;;;;;;3.20;1.60;;;;;;;9.67;44.77;101923.58;1845886;77;21119;-84
2022/05/05 19:49:55;;;;;;;5.08;1.67;;;;;;;9.63;45.24;101922.91;1846185;77;20999;-83
2022/05/05 19:52:21;;;;;;;6.20;1.40;;;;;;;9.61;45.34;101923.64;1846135;77;20972;-83
2022/05/05 19:54:47;;;;;;;3.47;1.35;;;;;;;9.55;45.55;101928.86;1841639;77;21506;-83
2022/05/05 20:02:43;;;;;;;2.50;1.40;;;;;;;9.45;45.81;101923.69;1846010;77;22237;-83
2022/05/05 20:07:54;;;;;;;5.70;1.40;;;;;;;9.39;46.42;101936.14;1846124;77;21000;-83
2022/05/05 20:10:20;;;;;;;4.97;1.37;;;;;;;9.34;46.56;101938.66;1846274;77;20979;-83
2022/05/05 20:12:46;;;;;;;5.42;1.40;;;;;;;9.29;46.75;101941.17;1846057;77;21131;-83
2022/05/05 20:15:13;;;;;;;6.72;1.50;;;;;;;9.24;46.85;101941.84;1846116;77;21641;-84
2022/05/05 20:17:40;;;;;;;3.45;1.60;;;;;;;9.20;47.10;101942.48;1845841;77;21642;-84
2022/05/05 20:20:07;;;;;;;5.80;2.10;;;;;;;9.15;47.16;101948.53;1846208;77;21058;-83
2022/05/05 20:22:33;;;;;;;8.13;2.02;;;;;;;9.11;47.51;101945.95;1846410;77;20984;-83
2022/05/05 20:24:59;;;;;;;3.40;1.50;;;;;;;9.06;47.91;101952.52;1846113;77;21081;-82
2022/05/05 20:27:25;;;;;;;4.28;1.60;;;;;;;9.02;47.94;101957.48;1846370;77;21134;-83
2022/05/05 20:29:57;;;;;;;4.10;1.60;;;;;;;9.00;48.20;101957.38;1846254;77;20960;-83
2022/05/05 20:32:19;;;;;;;4.12;1.52;;;;;;;8.95;48.27;101956.70;1841771;77;20977;-83
2022/05/05 20:34:45;;;;;;;5.75;2.15;;;;;;;8.92;48.31;101957.66;1846108;77;20999;-83
2022/05/05 20:37:11;;;;;;;2.83;1.20;;;;;;;8.87;48.52;101959.63;1857041;77;21693;-83
2022/05/05 20:39:37;;;;;;;4.20;1.47;;;;;;;8.85;48.66;101964.39;1862741;77;20895;-82
2022/05/05 20:42:06;;;;;;;4.28;1.80;;;;;;;8.83;49.02;101967.83;1863075;77;20864;-83
2022/05/05 20:44:32;;;;;;;7.92;1.85;;;;;;;8.78;49.42;101968.98;1863137;77;20995;-83
2022/05/05 20:46:58;;;;;;;4.60;1.60;;;;;;;8.74;49.56;101965.91;1863331;77;20943;-83
2022/05/05 20:49:24;;;;;;;3.52;1.70;;;;;;;8.71;49.41;101965.52;1863186;77;21057;-83
2022/05/05 20:51:50;;;;;;;3.50;1.50;;;;;;;8.67;49.83;101963.75;1831852;77;20923;-83
2022/05/05 20:54:16;;;;;;;3.85;1.50;;;;;;;8.62;49.79;101961.72;1831759;77;20859;-83
2022/05/05 20:56:42;;;;;;;4.12;1.60;;;;;;;8.60;49.92;101963.78;1863038;77;21108;-82
2022/05/05 20:59:10;;;;;;;4.05;1.32;;;;;;;8.58;50.71;101969.88;1863177;77;21034;-84
2022/05/05 21:01:36;;;;;;;5.40;1.70;;;;;;;8.56;50.60;101972.47;1863185;77;21887;-83
2022/05/05 21:04:02;;;;;;;4.80;1.92;;;;;;;8.53;50.33;101972.89;1863101;77;20979;-84
2022/05/05 21:06:28;;;;;;;3.98;1.47;;;;;;;8.49;50.89;101975.71;1863102;77;21041;-83
2022/05/05 21:08:54;;;;;;;5.40;2.10;;;;;;;8.42;51.74;101981.11;1863387;77;21580;-83
2022/05/05 21:11:21;;;;;;;4.25;1.67;;;;;;;8.42;51.74;101981.11;1832028;77;21035;-83
2022/05/05 21:13:46;;;;;;;4.12;1.67;;;;;;;8.36;51.85;101983.27;1863267;77;21794;-83
2022/05/05 21:16:13;;;;;;;5.10;2.15;;;;;;;8.29;52.46;101985.13;1863543;77;21149;-82
2022/05/05 21:18:39;;;;;;;5.83;2.22;;;;;;;8.29;52.46;101985.13;1863225;77;20951;-83
2022/05/05 21:26:28;;;;;;;9.70;1.77;;;;;;;8.22;53.13;101993.73;1870365;76;21903;-84
2022/05/05 21:28:55;;;;;;;5.12;1.98;;;;;;;8.13;53.75;101990.44;1833523;78;21530;-84
2022/05/05 21:31:21;;;;;;;9.48;2.67;;;;;;;8.10;53.69;101997.56;1826774;78;21033;-83
2022/05/05 21:33:48;;;;;;;7.03;2.27;;;;;;;8.05;54.61;102008.09;1826540;78;21007;-84
2022/05/05 21:36:14;;;;;;;6.53;2.15;;;;;;;8.00;54.44;102007.39;1826560;78;21027;-83
2022/05/05 21:38:40;;;;;;;10.28;2.80;;;;;;;7.95;54.83;102004.50;1826848;78;21015;-83
2022/05/05 21:41:06;;;;;;;8.63;2.40;;;;;;;7.90;55.39;102002.42;1826810;78;20956;-83
2022/05/05 21:43:33;;;;;;;10.53;3.85;;;;;;;7.87;56.04;102002.84;1826759;78;21058;-84
2022/05/05 21:46:01;;;;;;;8.03;2.98;;;;;;;7.83;57.08;102004.30;1826758;78;21007;-84
2022/05/05 21:48:28;;;;;;;6.58;2.05;;;;;;;7.79;57.10;102007.06;1826160;78;21416;-84
2022/05/05 21:50:55;;;;;;;6.40;2.35;;;;;;;7.76;57.37;102010.68;1826721;78;20944;-83
2022/05/05 21:53:21;;;;;;;7.78;2.75;;;;;;;7.71;57.23;102010.80;1826503;78;21011;-84
2022/05/05 21:55:47;;;;;;;5.47;2.35;;;;;;;7.64;58.28;102004.58;1826829;78;21164;-84
2022/05/05 21:58:14;;;;;;;9.03;2.22;;;;;;;7.64;58.28;102004.58;1826824;78;20999;-82
2022/05/05 22:00:48;;;;;;;7.37;1.80;;;;;;;7.61;59.56;102013.04;1826585;78;20956;-84
2022/05/05 22:03:19;;;;;;;4.35;1.65;;;;;;;7.57;59.80;102011.81;1826693;78;21574;-84
2022/05/05 22:05:46;;;;;;;3.85;1.60;;;;;;;7.52;60.24;102012.93;1826371;78;21015;-83
2022/05/05 22:08:14;;;;;;;4.78;1.70;;;;;;;7.48;60.87;102010.36;1826724;78;21093;-83
2022/05/05 22:10:40;;;;;;;7.35;2.40;;;;;;;7.43;61.56;102008.80;1826540;78;20920;-83
2022/05/05 22:13:08;;;;;;;7.17;1.67;;;;;;;7.38;62.55;102011.25;1826972;78;21506;-84
2022/05/05 22:15:34;;;;;;;5.90;1.72;;;;;;;7.35;63.48;102017.02;1826572;78;20996;-83
2022/05/05 22:18:02;;;;;;;3.90;1.87;;;;;;;7.29;63.58;102017.31;1826826;78;20968;-84
2022/05/05 22:20:30;;;;;;;4.55;1.80;;;;;;;7.22;64.23;102015.97;1826333;78;21086;-84
2022/05/05 22:22:56;;;;;;;6.78;2.00;;;;;;;7.21;64.83;102020.20;1826673;78;21511;-83
2022/05/05 22:25:23;;;;;;;5.72;1.90;;;;;;;7.17;66.14;102020.28;1826301;76;20956;-83
2022/05/05 22:27:49;;;;;;;3.60;1.90;;;;;;;7.13;66.15;102016.36;1826739;78;21254;-84
2022/05/05 22:30:15;;;;;;;4.75;2.00;;;;;;;7.09;66.54;102021.80;1826596;78;21080;-81
2022/05/05 22:32:41;;;;;;;8.30;2.02;;;;;;;7.08;68.41;102017.47;1826855;78;21167;-81
2022/05/05 22:35:09;;;;;;;3.55;1.77;;;;;;;7.07;68.94;102018.51;1826697;78;20999;-81
2022/05/05 22:37:36;;;;;;;3.15;1.67;;;;;;;7.01;69.29;102016.94;1826120;78;21015;-81
2022/05/05 22:42:49;;;;;;;5.00;2.05;;;;;;;6.92;72.12;102014.13;1826055;78;20956;-81
2022/05/05 22:45:16;;;;;;;4.70;1.95;;;;;;;6.86;71.99;102017.61;1826007;78;21096;-81
2022/05/05 22:47:44;;;;;;;6.33;2.02;;;;;;;6.81;73.36;102023.55;1826119;78;20972;-81
2022/05/05 22:52:41;;;;;;;6.22;2.80;;;;;;;6.72;72.37;102025.27;1636320;87;21042;-83
2022/05/05 22:55:09;;;;;;;4.78;2.33;;;;;;;6.66;72.58;102028.22;1636557;87;20943;-84
2022/05/05 22:57:35;;;;;;;8.78;3.05;;;;;;;6.63;73.24;102024.60;1636426;87;21159;-83
2022/05/05 23:00:02;;;;;;;9.08;3.00;;;;;;;6.60;74.15;102022.32;1636520;87;21132;-85
2022/05/05 23:02:28;;;;;;;11.55;3.52;;;;;;;6.56;73.97;102018.39;1636597;87;21049;-84
2022/05/05 23:04:54;;;;;;;9.43;3.47;;;;;;;6.55;75.47;102020.22;1636556;87;21696;-83
2022/05/05 23:07:20;;;;;;;10.98;4.03;;;;;;;6.53;75.44;102024.12;1636748;87;21038;-84
2022/05/05 23:09:46;;;;;;;11.93;3.92;;;;;;;6.49;75.85;102030.39;1636517;87;21946;-83
2022/05/05 23:12:13;;;;;;;9.40;3.62;;;;;;;6.46;80.06;102028.62;1636591;87;20919;-83
2022/05/05 23:14:38;;;;;;;10.50;3.70;;;;;;;6.40;78.68;102023.54;1636352;87;21050;-83
2022/05/05 23:17:05;;;;;;;9.38;3.45;;;;;;;6.36;78.64;102026.30;1636540;87;20999;-84
2022/05/05 23:19:31;;;;;;;9.33;3.85;;;;;;;6.32;79.07;102028.55;1636472;87;21562;-83
2022/05/05 23:21:57;;;;;;;10.20;4.30;;;;;;;6.31;82.03;102030.89;1636518;87;21081;-83
2022/05/05 23:24:23;;;;;;;15.45;5.20;;;;;;;6.27;83.27;102035.00;1595383;89;21448;-84
2022/05/05 23:26:49;;;;;;;13.25;4.67;;;;;;;6.22;85.14;102030.73;1595357;89;21010;-84
2022/05/05 23:29:15;;;;;;;15.85;5.30;;;;;;;6.17;86.75;102035.84;1606452;84;20993;-84
2022/05/05 23:31:40;;;;;;;16.85;5.70;;;;;;;6.12;86.73;102036.44;1706169;83;21272;-83
2022/05/05 23:36:51;;;;;;;18.27;6.28;;;;;;;6.05;89.19;102034.20;1705646;84;21082;-83
2022/05/05 23:39:17;;;;;;;17.48;6.97;;;;;;;6.02;92.77;102034.59;1706025;83;21105;-84
2022/05/05 23:41:44;;;;;;;22.62;8.50;;;;;;;5.97;92.93;102037.53;1706133;83;21057;-83
2022/05/05 23:44:10;;;;;;;22.50;8.03;;;;;;;5.92;92.59;102036.24;1706021;83;21530;-83
2022/05/05 23:46:36;;;;;;;27.58;9.15;;;;;;;5.89;93.40;102042.50;1713653;82;21287;-83
2022/05/05 23:49:02;;;;;;;29.67;9.58;;;;;;;5.88;93.10;102035.47;1745762;80;21447;-84
2022/05/05 23:51:43;;;;;;;29.32;10.48;;;;;;;5.83;94.00;102035.24;1785649;80;21524;-83
2022/05/05 23:54:17;;;;;;;32.60;10.85;;;;;;;5.84;94.59;102045.73;1785469;80;20998;-83
2022/05/05 23:56:42;;;;;;;31.37;10.63;;;;;;;5.83;92.94;102045.94;1829053;78;21006;-83
2022/05/05 23:59:09;;;;;;;32.40;11.57;;;;;;;5.82;92.08;102057.13;1829353;78;21561;-83
